createdAt,value
2019-02-22T00:00:47.929Z,54.18
2019-02-22T00:02:49.540Z,54.29
2019-02-22T00:04:51.185Z,54.45
2019-02-22T00:06:52.786Z,54.30
2019-02-22T00:08:54.391Z,54.48
2019-02-22T00:10:56.043Z,54.55
2019-02-22T00:12:57.628Z,54.61
2019-02-22T00:14:59.231Z,54.70
2019-02-22T00:17:00.868Z,54.76
2019-02-22T00:19:02.448Z,54.74
2019-02-22T00:21:04.089Z,54.87
2019-02-22T00:23:05.682Z,55.11
2019-02-22T00:25:07.291Z,54.98
2019-02-22T00:27:08.935Z,55.13
2019-02-22T00:29:10.524Z,55.11
2019-02-22T00:31:12.121Z,55.02
2019-02-22T00:33:13.730Z,55.15
2019-02-22T00:35:15.320Z,55.03
2019-02-22T00:37:16.967Z,54.91
2019-02-22T00:39:18.567Z,54.90
2019-02-22T00:41:20.218Z,54.87
2019-02-22T00:43:21.864Z,54.96
2019-02-22T00:45:23.458Z,54.82
2019-02-22T00:47:25.058Z,54.85
2019-02-22T00:49:26.694Z,55.01
2019-02-22T00:51:28.290Z,55.21
2019-02-22T00:53:29.900Z,55.06
2019-02-22T00:55:31.545Z,55.15
2019-02-22T00:57:33.153Z,55.14
2019-02-22T00:59:34.745Z,55.04
2019-02-22T01:01:36.345Z,55.01
2019-02-22T01:03:37.977Z,55.03
2019-02-22T01:05:39.571Z,54.95
2019-02-22T01:07:41.206Z,54.99
2019-02-22T01:09:42.805Z,54.89
2019-02-22T01:11:44.415Z,54.91
2019-02-22T01:13:46.052Z,55.03
2019-02-22T01:15:47.660Z,55.07
2019-02-22T01:17:49.262Z,54.84
2019-02-22T01:19:50.844Z,53.99
2019-02-22T01:21:52.440Z,54.12
2019-02-22T01:23:54.034Z,54.21
2019-02-22T01:25:55.674Z,54.42
2019-02-22T01:27:57.284Z,54.40
2019-02-22T01:29:58.901Z,54.51
2019-02-22T01:32:00.507Z,54.77
2019-02-22T01:34:02.123Z,54.67
2019-02-22T01:36:03.912Z,54.70
2019-02-22T01:38:05.523Z,54.93
2019-02-22T01:40:07.131Z,54.84
2019-02-22T01:42:08.734Z,54.87
2019-02-22T01:44:10.330Z,55.06
2019-02-22T01:46:11.959Z,55.30
2019-02-22T01:48:13.561Z,55.43
2019-02-22T01:50:15.159Z,55.72
2019-02-22T01:52:16.764Z,55.80
2019-02-22T01:54:18.381Z,56.02
2019-02-22T01:56:20.012Z,56.30
2019-02-22T01:58:21.634Z,56.62
2019-02-22T02:00:23.248Z,56.85
2019-02-22T02:02:24.859Z,56.54
2019-02-22T02:04:26.470Z,56.49
2019-02-22T02:06:28.095Z,56.62
2019-02-22T02:08:29.704Z,56.78
2019-02-22T02:10:31.307Z,56.80
2019-02-22T02:12:32.902Z,57.18
2019-02-22T02:14:34.494Z,56.94
2019-02-22T02:16:36.100Z,57.32
2019-02-22T02:18:37.750Z,57.34
2019-02-22T02:20:39.379Z,57.23
2019-02-22T02:22:41.034Z,57.26
2019-02-22T02:24:42.644Z,57.37
2019-02-22T02:26:44.255Z,57.03
2019-02-22T02:28:45.904Z,57.15
2019-02-22T02:30:47.519Z,56.94
2019-02-22T02:32:49.121Z,57.29
2019-02-22T02:34:50.744Z,56.82
2019-02-22T02:36:52.343Z,56.94
2019-02-22T02:38:53.960Z,57.17
2019-02-22T02:41:07.205Z,56.77
2019-02-22T02:42:57.246Z,56.86
2019-02-22T02:44:58.859Z,56.87
2019-02-22T02:47:00.475Z,56.86
2019-02-22T02:49:02.079Z,56.83
2019-02-22T02:51:03.753Z,56.85
2019-02-22T02:53:05.426Z,56.80
2019-02-22T02:55:07.033Z,56.78
2019-02-22T02:57:08.667Z,56.78
2019-02-22T02:59:10.266Z,56.71
2019-02-22T03:01:11.899Z,56.57
2019-02-22T03:03:13.494Z,56.66
2019-02-22T03:05:15.089Z,56.48
2019-02-22T03:07:16.707Z,56.43
2019-02-22T03:09:18.351Z,56.58
2019-02-22T03:11:21.223Z,56.70
2019-02-22T03:13:21.583Z,56.74
2019-02-22T03:15:23.187Z,56.75
2019-02-22T03:17:24.795Z,56.76
2019-02-22T03:19:26.409Z,57.04
2019-02-22T03:21:28.022Z,57.06
2019-02-22T03:23:29.657Z,57.04
2019-02-22T03:25:31.256Z,57.02
2019-02-22T03:27:32.856Z,57.08
2019-02-22T03:29:34.453Z,57.01
2019-02-22T03:31:36.047Z,57.10
2019-02-22T03:33:37.687Z,56.94
2019-02-22T03:35:39.301Z,56.97
2019-02-22T03:37:40.901Z,56.92
2019-02-22T03:39:42.518Z,57.17
2019-02-22T03:41:44.132Z,57.43
2019-02-22T03:43:45.756Z,57.33
2019-02-22T03:45:47.412Z,57.42
2019-02-22T03:47:49.058Z,57.88
2019-02-22T03:49:50.664Z,58.28
2019-02-22T03:51:52.273Z,57.71
2019-02-22T03:53:53.910Z,57.73
2019-02-22T03:55:55.516Z,57.90
2019-02-22T03:57:57.114Z,57.77
2019-02-22T03:59:58.709Z,57.79
2019-02-22T04:02:00.789Z,58.13
2019-02-22T04:04:02.453Z,57.99
2019-02-22T04:06:04.068Z,57.75
2019-02-22T04:08:07.204Z,57.72
2019-02-22T04:10:07.380Z,57.58
2019-02-22T04:12:09.092Z,57.57
2019-02-22T04:14:10.677Z,57.71
2019-02-22T04:16:12.288Z,57.56
2019-02-22T04:18:13.901Z,57.45
2019-02-22T04:20:15.506Z,57.53
2019-02-22T04:22:17.156Z,57.41
2019-02-22T04:24:18.755Z,57.50
2019-02-22T04:26:20.341Z,57.32
2019-02-22T04:28:21.995Z,57.46
2019-02-22T04:30:23.593Z,57.43
2019-02-22T04:32:25.195Z,57.32
2019-02-22T04:34:26.864Z,57.25
2019-02-22T04:36:28.520Z,57.26
2019-02-22T04:38:30.132Z,57.29
2019-02-22T04:40:31.754Z,57.64
2019-02-22T04:42:33.361Z,57.23
2019-02-22T04:44:34.998Z,57.20
2019-02-22T04:46:36.597Z,56.99
2019-02-22T04:48:38.179Z,57.50
2019-02-22T04:50:39.813Z,57.57
2019-02-22T04:52:41.462Z,57.69
2019-02-22T04:54:43.055Z,57.55
2019-02-22T04:56:44.651Z,57.85
2019-02-22T04:58:46.278Z,57.79
2019-02-22T05:00:47.901Z,57.72
2019-02-22T05:02:49.714Z,57.72
2019-02-22T05:04:51.328Z,58.05
2019-02-22T05:06:52.927Z,58.12
2019-02-22T05:08:54.562Z,58.13
2019-02-22T05:10:56.175Z,58.33
2019-02-22T05:12:57.783Z,58.51
2019-02-22T05:15:11.503Z,58.73
2019-02-22T05:17:01.080Z,58.68
2019-02-22T05:19:02.678Z,58.74
2019-02-22T05:21:04.285Z,58.74
2019-02-22T05:23:07.518Z,58.75
2019-02-22T05:25:07.563Z,58.76
2019-02-22T05:27:09.169Z,58.78
2019-02-22T05:29:10.804Z,58.82
2019-02-22T05:31:12.639Z,58.74
2019-02-22T05:33:14.233Z,58.54
2019-02-22T05:35:15.826Z,58.67
2019-02-22T05:37:17.461Z,58.50
2019-02-22T05:39:19.686Z,58.21
2019-02-22T05:41:20.748Z,58.25
2019-02-22T05:43:22.412Z,58.22
2019-02-22T05:45:24.027Z,58.08
2019-02-22T05:47:25.615Z,58.03
2019-02-22T05:49:27.255Z,57.96
2019-02-22T05:51:28.881Z,57.79
2019-02-22T05:53:30.473Z,57.71
2019-02-22T05:55:32.077Z,57.68
2019-02-22T05:57:33.720Z,57.79
2019-02-22T05:59:35.309Z,57.65
2019-02-22T06:01:36.945Z,57.65
2019-02-22T06:03:38.554Z,57.82
2019-02-22T06:05:40.169Z,57.72
2019-02-22T06:07:41.784Z,57.86
2019-02-22T06:09:43.397Z,57.98
2019-02-22T06:11:45.020Z,58.10
2019-02-22T06:13:46.617Z,58.36
2019-02-22T06:15:48.211Z,58.23
2019-02-22T06:17:49.805Z,58.42
2019-02-22T06:19:51.452Z,58.53
2019-02-22T06:21:53.123Z,59.01
2019-02-22T06:23:54.762Z,58.90
2019-02-22T06:25:56.357Z,59.25
2019-02-22T06:27:57.968Z,59.21
2019-02-22T06:29:59.553Z,59.47
2019-02-22T06:32:01.203Z,58.87
2019-02-22T06:34:02.831Z,58.29
2019-02-22T06:36:04.468Z,58.49
2019-02-22T06:38:06.070Z,58.56
2019-02-22T06:40:07.697Z,58.63
2019-02-22T06:42:09.348Z,58.65
2019-02-22T06:44:11.994Z,58.60
2019-02-22T06:46:12.675Z,58.44
2019-02-22T06:48:14.256Z,58.49
2019-02-22T06:50:15.841Z,58.39
2019-02-22T06:52:17.442Z,58.48
2019-02-22T06:54:19.085Z,58.44
2019-02-22T06:56:20.748Z,58.79
2019-02-22T06:58:22.362Z,58.52
2019-02-22T07:00:23.961Z,58.15
2019-02-22T07:02:25.598Z,57.40
2019-02-22T07:04:27.194Z,57.19
2019-02-22T07:06:28.826Z,57.05
2019-02-22T07:08:30.439Z,57.11
2019-02-22T07:10:32.034Z,57.18
2019-02-22T07:12:35.268Z,57.19
2019-02-22T07:14:36.918Z,57.20
2019-02-22T07:16:38.534Z,57.23
2019-02-22T07:18:40.164Z,57.35
2019-02-22T07:20:41.790Z,57.23
2019-02-22T07:22:43.376Z,57.19
2019-02-22T07:24:44.963Z,57.28
2019-02-22T07:26:46.572Z,57.17
2019-02-22T07:28:48.183Z,57.25
2019-02-22T07:30:49.848Z,57.12
2019-02-22T07:32:51.466Z,57.20
2019-02-22T07:34:53.066Z,57.23
2019-02-22T07:36:54.707Z,57.36
2019-02-22T07:38:56.292Z,57.24
2019-02-22T07:40:57.886Z,57.33
2019-02-22T07:43:07.769Z,57.40
2019-02-22T07:45:01.161Z,57.24
2019-02-22T07:47:02.775Z,57.53
2019-02-22T07:49:04.463Z,57.71
2019-02-22T07:51:06.077Z,58.05
2019-02-22T07:53:07.688Z,58.17
2019-02-22T07:55:09.340Z,58.26
2019-02-22T07:57:10.942Z,58.39
2019-02-22T07:59:12.537Z,58.70
2019-02-22T08:01:14.139Z,59.04
2019-02-22T08:03:15.738Z,59.07
2019-02-22T08:05:17.323Z,59.89
2019-02-22T08:07:18.954Z,60.21
2019-02-22T08:09:20.553Z,60.43
2019-02-22T08:11:22.162Z,58.66
2019-02-22T08:13:23.793Z,58.25
2019-02-22T08:15:25.422Z,56.67
2019-02-22T08:17:27.054Z,56.66
2019-02-22T08:19:28.659Z,56.16
2019-02-22T08:21:30.255Z,56.13
2019-02-22T08:23:31.861Z,56.24
2019-02-22T08:25:33.452Z,56.25
2019-02-22T08:27:35.114Z,56.28
2019-02-22T08:29:38.317Z,56.42
2019-02-22T08:31:38.357Z,56.52
2019-02-22T08:33:39.968Z,55.70
2019-02-22T08:35:41.564Z,55.36
2019-02-22T08:37:43.168Z,55.17
2019-02-22T08:39:44.805Z,54.98
2019-02-22T08:41:46.397Z,54.79
2019-02-22T08:43:47.984Z,54.61
2019-02-22T08:45:49.605Z,54.45
2019-02-22T08:47:51.250Z,54.31
2019-02-22T08:49:52.860Z,54.23
2019-02-22T08:51:54.477Z,54.10
2019-02-22T08:53:56.087Z,54.01
2019-02-22T08:55:57.701Z,54.02
2019-02-22T08:57:59.284Z,53.98
2019-02-22T09:00:00.924Z,53.99
2019-02-22T09:02:02.533Z,54.02
2019-02-22T09:04:04.185Z,54.08
2019-02-22T09:06:05.772Z,54.10
2019-02-22T09:08:07.367Z,54.22
2019-02-22T09:10:08.999Z,54.28
2019-02-22T09:12:10.608Z,54.34
2019-02-22T09:14:12.260Z,54.89
2019-02-22T09:16:13.853Z,53.60
2019-02-22T09:18:15.464Z,53.87
2019-02-22T09:20:17.103Z,54.12
2019-02-22T09:22:22.985Z,55.59
2019-02-22T09:24:20.370Z,53.17
2019-02-22T09:26:22.006Z,53.54
2019-02-22T09:28:23.602Z,53.14
2019-02-22T09:30:25.212Z,53.25
2019-02-22T09:32:26.813Z,53.46
2019-02-22T09:36:41.629Z,53.54
2019-02-22T09:38:43.283Z,53.59
2019-02-22T09:40:44.896Z,53.54
2019-02-22T09:42:46.540Z,54.10
2019-02-22T09:44:48.138Z,52.74
2019-02-22T09:46:49.730Z,52.66
2019-02-22T09:48:51.319Z,53.19
2019-02-22T09:50:53.077Z,53.49
2019-02-22T09:52:54.705Z,53.63
2019-02-22T09:54:56.310Z,53.72
2019-02-22T09:56:57.902Z,53.76
2019-02-22T09:58:59.502Z,53.74
2019-02-22T10:01:01.097Z,53.74
2019-02-22T10:03:03.000Z,53.75
2019-02-22T10:05:04.602Z,53.70
2019-02-22T10:07:06.202Z,53.68
2019-02-22T10:09:07.791Z,53.66
2019-02-22T10:11:09.692Z,53.61
2019-02-22T10:13:11.290Z,53.55
2019-02-22T10:15:12.901Z,53.48
2019-02-22T10:17:14.528Z,53.31
2019-02-22T10:19:16.135Z,53.11
2019-02-22T10:21:17.770Z,52.49
2019-02-22T10:23:19.384Z,51.90
2019-02-22T10:25:20.978Z,52.54
2019-02-22T10:27:22.574Z,50.71
2019-02-22T10:29:24.184Z,51.02
2019-02-22T10:31:25.817Z,51.03
2019-02-22T10:33:36.223Z,50.65
2019-02-22T10:35:29.118Z,50.52
2019-02-22T10:37:30.729Z,50.99
2019-02-22T10:39:32.320Z,51.69
2019-02-22T10:41:33.904Z,50.84
2019-02-22T10:43:35.500Z,50.72
2019-02-22T10:45:37.160Z,50.50
2019-02-22T10:47:38.753Z,50.60
2019-02-22T10:49:40.341Z,51.16
2019-02-22T10:51:41.962Z,52.01
2019-02-22T10:53:43.567Z,51.52
2019-02-22T10:55:45.161Z,51.49
2019-02-22T10:57:46.758Z,51.69
2019-02-22T10:59:48.360Z,50.02
2019-02-22T11:01:49.981Z,50.14
2019-02-22T11:03:51.567Z,50.71
2019-02-22T11:05:53.170Z,50.70
2019-02-22T11:07:54.770Z,50.99
2019-02-22T11:09:56.430Z,51.07
2019-02-22T11:11:58.088Z,51.07
2019-02-22T11:13:59.695Z,51.85
2019-02-22T11:16:01.338Z,52.08
2019-02-22T11:18:02.932Z,51.59
2019-02-22T11:20:04.554Z,51.63
2019-02-22T11:22:06.426Z,51.43
2019-02-22T11:24:08.034Z,51.69
2019-02-22T11:26:09.652Z,52.03
2019-02-22T11:28:11.312Z,51.21
2019-02-22T11:30:12.917Z,51.81
2019-02-22T11:32:14.527Z,51.18
2019-02-22T11:34:16.133Z,51.16
2019-02-22T11:36:17.716Z,51.41
2019-02-22T11:38:19.367Z,52.06
2019-02-22T11:40:20.979Z,51.79
2019-02-22T11:42:22.593Z,51.13
2019-02-22T11:44:24.242Z,51.43
2019-02-22T11:46:25.946Z,50.62
2019-02-22T11:48:27.596Z,50.00
2019-02-22T11:50:29.200Z,51.15
2019-02-22T11:52:30.803Z,50.61
2019-02-22T11:54:32.530Z,51.05
2019-02-22T11:56:34.120Z,51.00
2019-02-22T11:58:35.732Z,51.02
2019-02-22T12:00:37.370Z,50.72
2019-02-22T12:02:39.027Z,51.21
2019-02-22T12:04:40.624Z,51.48
2019-02-22T12:06:42.282Z,51.86
2019-02-22T12:08:43.895Z,51.95
2019-02-22T12:10:45.816Z,52.65
2019-02-22T12:12:47.468Z,53.07
2019-02-22T12:14:52.099Z,53.22
2019-02-22T12:16:50.727Z,52.41
2019-02-22T12:18:52.361Z,52.82
2019-02-22T12:20:54.019Z,52.85
2019-02-22T12:22:55.748Z,52.87
2019-02-22T12:24:57.343Z,52.80
2019-02-22T12:26:58.941Z,52.87
2019-02-22T12:29:00.534Z,52.85
2019-02-22T12:31:02.129Z,52.83
2019-02-22T12:33:03.725Z,52.78
2019-02-22T12:35:05.372Z,52.72
2019-02-22T12:37:06.988Z,52.56
2019-02-22T12:39:08.581Z,52.65
2019-02-22T12:41:10.235Z,52.46
2019-02-22T12:43:11.834Z,52.59
2019-02-22T12:45:13.448Z,52.58
2019-02-22T12:47:15.100Z,52.82
2019-02-22T12:49:16.741Z,52.91
2019-02-22T12:51:18.327Z,53.05
2019-02-22T12:53:19.917Z,52.97
2019-02-22T12:55:21.534Z,53.08
2019-02-22T12:57:23.431Z,53.18
2019-02-22T12:59:25.200Z,53.20
2019-02-22T13:01:26.806Z,53.33
2019-02-22T13:03:28.402Z,53.63
2019-02-22T13:05:30.038Z,53.55
2019-02-22T13:07:31.651Z,53.67
2019-02-22T13:09:36.967Z,53.67
2019-02-22T13:11:34.923Z,53.86
2019-02-22T13:13:36.536Z,53.93
2019-02-22T13:15:38.153Z,53.95
2019-02-22T13:17:39.767Z,53.94
2019-02-22T13:19:41.410Z,54.02
2019-02-22T13:21:43.006Z,54.01
2019-02-22T13:23:44.624Z,54.14
2019-02-22T13:25:46.229Z,54.10
2019-02-22T13:27:48.071Z,54.34
2019-02-22T13:29:49.529Z,54.28
2019-02-22T13:31:53.267Z,54.40
2019-02-22T13:33:52.785Z,54.64
2019-02-22T13:35:54.440Z,54.74
2019-02-22T13:37:56.349Z,54.08
2019-02-22T13:39:57.954Z,54.32
2019-02-22T13:41:59.565Z,54.65
2019-02-22T13:44:01.193Z,54.79
2019-02-22T13:46:02.805Z,54.61
2019-02-22T13:48:04.408Z,54.78
2019-02-22T13:50:06.023Z,55.12
2019-02-22T13:52:07.668Z,55.12
2019-02-22T13:54:09.282Z,54.89
2019-02-22T13:56:10.882Z,54.63
2019-02-22T13:58:12.562Z,54.18
2019-02-22T14:00:14.171Z,53.19
2019-02-22T14:02:15.811Z,53.86
2019-02-22T14:04:17.403Z,52.36
2019-02-22T14:06:19.021Z,52.59
2019-02-22T14:08:20.617Z,52.73
2019-02-22T14:10:22.222Z,52.77
2019-02-22T14:12:23.876Z,52.82
2019-02-22T14:14:25.470Z,52.88
2019-02-22T14:16:27.078Z,52.91
2019-02-22T14:18:28.680Z,52.89
2019-02-22T14:20:30.293Z,52.88
2019-02-22T14:22:31.933Z,52.93
2019-02-22T14:24:33.544Z,53.04
2019-02-22T14:26:35.146Z,53.16
2019-02-22T14:28:36.796Z,53.19
2019-02-22T14:30:38.444Z,53.24
2019-02-22T14:32:40.045Z,53.14
2019-02-22T14:34:41.673Z,53.14
2019-02-22T14:36:43.425Z,53.21
2019-02-22T14:38:45.090Z,53.22
2019-02-22T14:40:56.618Z,53.31
2019-02-22T14:42:59.875Z,53.47
2019-02-22T14:45:01.976Z,53.71
2019-02-22T14:47:03.298Z,51.49
2019-02-22T14:49:04.912Z,51.14
2019-02-22T14:51:07.566Z,50.51
2019-02-22T14:53:19.030Z,50.58
2019-02-22T14:55:10.858Z,50.17
2019-02-22T14:57:12.511Z,50.63
2019-02-22T14:59:14.114Z,50.19
2019-02-22T15:01:15.710Z,51.02
2019-02-22T15:03:17.346Z,50.65
2019-02-22T15:05:18.932Z,50.98
2019-02-22T15:07:20.544Z,51.74
2019-02-22T15:09:22.154Z,52.51
2019-02-22T15:11:23.748Z,52.44
2019-02-22T15:13:25.342Z,52.77
2019-02-22T15:15:32.572Z,53.09
2019-02-22T15:17:34.227Z,53.11
2019-02-22T15:19:36.088Z,53.17
2019-02-22T15:21:37.715Z,53.20
2019-02-22T15:23:39.386Z,53.14
2019-02-22T15:25:41.061Z,53.06
2019-02-22T15:27:42.661Z,53.12
2019-02-22T15:29:44.265Z,53.19
2019-02-22T15:31:45.889Z,53.23
2019-02-22T15:33:48.228Z,53.23
2019-02-22T15:35:49.891Z,53.29
2019-02-22T15:37:51.980Z,53.25
2019-02-22T15:40:04.314Z,53.20
2019-02-22T15:42:06.023Z,53.15
2019-02-22T15:44:07.769Z,53.07
2019-02-22T15:46:12.310Z,52.98
2019-02-22T15:48:10.998Z,52.89
2019-02-22T15:50:12.652Z,52.64
2019-02-22T15:52:14.280Z,52.37
2019-02-22T15:54:16.117Z,52.20
2019-02-22T15:56:18.500Z,52.03
2019-02-22T15:58:19.704Z,51.97
2019-02-22T16:00:21.316Z,51.80
2019-02-22T16:02:22.930Z,51.64
2019-02-22T16:04:27.970Z,51.49
2019-02-22T16:06:32.199Z,51.50
2019-02-22T16:08:31.201Z,51.46
2019-02-22T16:10:32.816Z,50.96
2019-02-22T16:12:34.423Z,50.87
2019-02-22T16:16:43.820Z,50.70
2019-02-22T16:18:45.476Z,50.85
2019-02-22T16:20:47.080Z,51.02
2019-02-22T16:22:50.830Z,51.15
2019-02-22T16:24:50.866Z,51.25
2019-02-22T16:27:02.591Z,51.42
2019-02-22T16:29:04.186Z,51.49
2019-02-22T16:31:05.846Z,51.55
2019-02-22T16:33:07.442Z,51.67
2019-02-22T16:35:09.042Z,51.78
2019-02-22T16:37:10.689Z,51.81
2019-02-22T16:39:12.357Z,51.92
2019-02-22T16:41:13.958Z,51.94
2019-02-22T16:43:15.558Z,51.90
2019-02-22T16:45:17.158Z,52.04
2019-02-22T16:47:18.796Z,51.99
2019-02-22T16:49:21.035Z,52.01
2019-02-22T16:51:22.682Z,52.00
2019-02-22T16:53:24.287Z,51.92
2019-02-22T16:55:25.900Z,51.92
2019-02-22T16:57:27.512Z,51.84
2019-02-22T16:59:29.114Z,51.77
2019-02-22T17:01:30.710Z,51.66
2019-02-22T17:03:32.323Z,51.58
2019-02-22T17:05:33.939Z,51.44
2019-02-22T17:07:35.543Z,51.40
2019-02-22T17:09:37.177Z,51.38
2019-02-22T17:11:38.846Z,51.27
2019-02-22T17:13:40.450Z,51.19
2019-02-22T17:15:42.085Z,51.07
2019-02-22T17:17:43.859Z,51.09
2019-02-22T17:19:45.515Z,51.13
2019-02-22T17:21:47.157Z,51.09
2019-02-22T17:23:48.951Z,51.01
2019-02-22T17:25:50.592Z,51.02
2019-02-22T17:27:52.180Z,51.17
2019-02-22T17:29:53.768Z,51.30
2019-02-22T17:31:55.376Z,51.34
2019-02-22T17:33:57.022Z,51.37
2019-02-22T17:35:58.645Z,51.43
2019-02-22T17:38:00.255Z,51.50
2019-02-22T17:40:01.913Z,51.60
2019-02-22T17:42:03.522Z,51.61
2019-02-22T17:44:05.134Z,51.66
2019-02-22T17:46:06.773Z,51.68
2019-02-22T17:48:08.384Z,51.79
2019-02-22T17:50:09.974Z,51.80
2019-02-22T17:52:11.589Z,51.87
2019-02-22T17:54:13.209Z,51.92
2019-02-22T17:56:14.855Z,51.95
2019-02-22T17:58:23.940Z,51.96
2019-02-22T18:00:18.166Z,52.08
2019-02-22T18:02:19.803Z,52.03
2019-02-22T18:04:21.437Z,52.06
2019-02-22T18:06:23.030Z,52.04
2019-02-22T18:08:24.640Z,52.11
2019-02-22T18:10:26.237Z,52.04
2019-02-22T18:12:27.834Z,52.02
2019-02-22T18:14:29.478Z,51.95
2019-02-22T18:16:31.063Z,51.84
2019-02-22T18:18:32.657Z,51.71
2019-02-22T18:20:34.290Z,51.59
2019-02-22T18:22:35.880Z,51.43
2019-02-22T18:24:37.492Z,51.31
2019-02-22T18:26:39.104Z,51.07
2019-02-22T18:28:40.751Z,50.97
2019-02-22T18:30:42.369Z,50.90
2019-02-22T18:32:43.966Z,50.71
2019-02-22T18:34:45.953Z,50.63
2019-02-22T18:36:47.550Z,50.58
2019-02-22T18:38:49.150Z,50.49
2019-02-22T18:40:50.786Z,50.46
2019-02-22T18:42:52.437Z,50.55
2019-02-22T18:44:54.024Z,50.67
2019-02-22T18:46:55.671Z,50.67
2019-02-22T18:48:57.266Z,50.55
2019-02-22T18:50:58.917Z,50.62
2019-02-22T18:53:00.517Z,50.65
2019-02-22T18:55:02.121Z,50.69
2019-02-22T18:57:03.714Z,50.77
2019-02-22T18:59:05.336Z,50.90
2019-02-22T19:01:06.934Z,50.97
2019-02-22T19:03:08.587Z,51.00
2019-02-22T19:05:10.220Z,51.06
2019-02-22T19:07:11.894Z,51.17
2019-02-22T19:09:13.571Z,51.24
2019-02-22T19:11:15.170Z,51.26
2019-02-22T19:13:16.806Z,51.28
2019-02-22T19:15:18.401Z,51.34
2019-02-22T19:17:29.928Z,51.40
2019-02-22T19:19:21.629Z,51.40
2019-02-22T19:21:23.307Z,51.43
2019-02-22T19:23:24.906Z,51.47
2019-02-22T19:25:26.502Z,51.51
2019-02-22T19:27:28.087Z,51.54
2019-02-22T19:29:29.686Z,51.50
2019-02-22T19:31:31.323Z,51.42
2019-02-22T19:33:33.009Z,51.32
2019-02-22T19:35:34.577Z,51.22
2019-02-22T19:37:36.173Z,51.08
2019-02-22T19:39:37.781Z,51.00
2019-02-22T19:41:39.381Z,50.79
2019-02-22T19:43:41.018Z,50.64
2019-02-22T19:45:42.627Z,50.47
2019-02-22T19:47:44.301Z,50.28
2019-02-22T19:49:45.911Z,50.17
2019-02-22T19:51:47.527Z,50.35
2019-02-22T19:53:49.178Z,50.50
2019-02-22T19:55:50.778Z,50.59
2019-02-22T19:57:52.391Z,50.69
2019-02-22T19:59:53.990Z,50.79
2019-02-22T20:01:55.601Z,50.95
2019-02-22T20:03:57.209Z,51.02
2019-02-22T20:05:58.805Z,51.10
2019-02-22T20:08:00.456Z,51.11
2019-02-22T20:10:02.903Z,51.00
2019-02-22T20:12:04.497Z,50.84
2019-02-22T20:14:06.142Z,50.59
2019-02-22T20:16:07.758Z,39.60
2019-02-22T20:18:09.367Z,44.75
2019-02-22T20:20:10.975Z,44.65
2019-02-22T20:22:12.579Z,45.93
2019-02-22T20:24:14.246Z,45.08
2019-02-22T20:26:15.898Z,44.62
2019-02-22T20:28:17.602Z,44.84
2019-02-22T20:30:19.204Z,45.16
2019-02-22T20:32:20.883Z,45.25
2019-02-22T20:34:22.477Z,45.62
2019-02-22T20:36:28.425Z,45.88
2019-02-22T20:38:25.796Z,45.80
2019-02-22T20:40:27.473Z,45.92
2019-02-22T20:42:29.066Z,45.81
2019-02-22T20:44:30.706Z,46.18
2019-02-22T20:46:32.575Z,46.54
2019-02-22T20:48:34.291Z,46.16
2019-02-22T20:50:35.923Z,46.26
2019-02-22T20:52:37.532Z,46.62
2019-02-22T20:54:39.134Z,46.89
2019-02-22T20:56:40.733Z,47.24
2019-02-22T20:58:42.366Z,47.18
2019-02-22T21:00:43.978Z,47.26
2019-02-22T21:02:45.598Z,47.90
2019-02-22T21:04:47.283Z,47.55
2019-02-22T21:06:48.940Z,48.10
2019-02-22T21:08:50.538Z,48.10
2019-02-22T21:10:52.182Z,48.24
2019-02-22T21:12:53.811Z,48.89
2019-02-22T21:14:55.424Z,49.15
2019-02-22T21:16:57.023Z,49.56
2019-02-22T21:18:58.657Z,49.49
2019-02-22T21:21:00.272Z,49.43
2019-02-22T21:23:01.913Z,49.71
2019-02-22T21:25:03.514Z,49.51
2019-02-22T21:27:05.125Z,49.95
2019-02-22T21:29:06.762Z,49.98
2019-02-22T21:31:08.371Z,49.43
2019-02-22T21:33:09.996Z,49.71
2019-02-22T21:35:11.608Z,50.01
2019-02-22T21:37:13.208Z,47.79
2019-02-22T21:39:14.805Z,47.69
2019-02-22T21:41:16.595Z,48.37
2019-02-22T21:43:18.126Z,47.86
2019-02-22T21:45:19.763Z,48.00
2019-02-22T21:47:21.476Z,48.38
2019-02-22T21:49:23.088Z,48.29
2019-02-22T21:51:24.685Z,48.58
2019-02-22T21:53:26.310Z,49.09
2019-02-22T21:55:27.907Z,48.85
2019-02-22T21:57:29.552Z,49.16
2019-02-22T21:59:31.140Z,48.94
2019-02-22T22:01:32.774Z,49.03
2019-02-22T22:03:34.375Z,48.48
2019-02-22T22:05:36.769Z,49.21
2019-02-22T22:07:38.366Z,48.72
2019-02-22T22:09:39.970Z,48.77
2019-02-22T22:11:41.568Z,48.62
2019-02-22T22:13:43.195Z,48.17
2019-02-22T22:15:44.810Z,48.33
2019-02-22T22:17:46.460Z,48.26
2019-02-22T22:19:48.073Z,48.47
2019-02-22T22:21:49.694Z,48.45
2019-02-22T22:23:51.340Z,48.55
2019-02-22T22:25:52.940Z,48.61
2019-02-22T22:27:54.558Z,47.52
2019-02-22T22:29:56.171Z,47.72
2019-02-22T22:31:57.788Z,47.08
2019-02-22T22:33:59.422Z,47.85
2019-02-22T22:36:01.484Z,48.21
2019-02-22T22:38:03.135Z,48.48
2019-02-22T22:40:04.720Z,48.58
2019-02-22T22:42:06.325Z,48.71
2019-02-22T22:44:07.922Z,49.23
2019-02-22T22:46:09.531Z,49.29
2019-02-22T22:48:11.137Z,49.10
2019-02-22T22:50:12.743Z,49.53
2019-02-22T22:52:14.388Z,49.90
2019-02-22T22:54:16.010Z,49.78
2019-02-22T22:56:17.603Z,49.87
2019-02-22T22:58:19.262Z,50.04
2019-02-22T23:00:20.878Z,49.96
2019-02-22T23:02:22.478Z,50.11
2019-02-22T23:04:24.089Z,50.29
2019-02-22T23:06:25.702Z,50.46
2019-02-22T23:08:27.345Z,50.55
2019-02-22T23:10:28.942Z,50.31
2019-02-22T23:12:30.542Z,50.25
2019-02-22T23:14:32.152Z,50.46
2019-02-22T23:16:33.772Z,50.34
2019-02-22T23:18:35.389Z,50.41
2019-02-22T23:20:36.975Z,50.47
2019-02-22T23:22:38.570Z,50.49
2019-02-22T23:24:40.161Z,50.52
2019-02-22T23:26:41.784Z,50.85
2019-02-22T23:28:43.414Z,49.82
2019-02-22T23:30:45.010Z,49.35
2019-02-22T23:32:46.651Z,49.56
2019-02-22T23:34:48.251Z,49.57
2019-02-22T23:36:49.852Z,49.12
2019-02-22T23:38:51.505Z,49.35
2019-02-22T23:40:53.116Z,49.44
2019-02-22T23:42:54.751Z,49.52
2019-02-22T23:44:56.363Z,49.53
2019-02-22T23:46:57.968Z,49.55
2019-02-22T23:48:59.601Z,49.57
2019-02-22T23:51:01.219Z,50.03
2019-02-22T23:53:02.846Z,50.35
2019-02-22T23:55:04.465Z,50.70
2019-02-22T23:57:06.085Z,50.98
2019-02-22T23:59:07.704Z,51.20
